Time;durP1;ratioP1;P1;durP2;ratioP2;P2;SDS_P1;SDS_P2;PMS_P1;PMS_P2;Temp;Humidity;BMP_temperature;BMP_pressure;BME280_temperature;BME280_humidity;BME280_pressure;Samples;Min_cycle;Max_cycle;Signal;HPM_P1;HPM_P2
2023/01/29 00:01:08;;;;;;;52.30;29.97;;;0.70;68.30;;;;;;5074601;28;20168;-68
2023/01/29 00:03:34;;;;;;;55.43;29.47;;;0.70;68.20;;;;;;5074800;28;20217;-68
2023/01/29 00:06:05;;;;;;;51.57;29.47;;;0.60;70.60;;;;;;5074894;28;20169;-68
2023/01/29 00:08:33;;;;;;;57.23;30.20;;;0.60;71.00;;;;;;5074983;28;20241;-68
2023/01/29 00:11:04;;;;;;;51.10;29.60;;;0.60;70.50;;;;;;5074713;28;20184;-68
2023/01/29 00:13:29;;;;;;;53.23;29.77;;;0.70;71.30;;;;;;5072125;28;20183;-68
2023/01/29 00:15:56;;;;;;;59.30;30.87;;;0.60;69.90;;;;;;5074231;28;20173;-68
2023/01/29 00:18:22;;;;;;;55.77;31.50;;;0.60;66.90;;;;;;5074705;28;20214;-67
2023/01/29 00:20:48;;;;;;;54.23;31.33;;;0.50;67.70;;;;;;5074648;28;20169;-66
2023/01/29 00:23:14;;;;;;;54.77;30.13;;;0.40;69.10;;;;;;5074529;28;20176;-68
2023/01/29 00:25:41;;;;;;;54.47;31.53;;;0.50;73.40;;;;;;5074305;28;20192;-68
2023/01/29 00:28:06;;;;;;;52.70;29.93;;;0.50;74.40;;;;;;5074505;28;20197;-68
2023/01/29 00:30:32;;;;;;;55.77;31.37;;;0.50;74.80;;;;;;5073952;28;20506;-68
2023/01/29 00:32:58;;;;;;;57.90;32.60;;;0.50;78.00;;;;;;5074382;28;20643;-68
2023/01/29 00:35:23;;;;;;;57.10;32.37;;;0.50;79.30;;;;;;5074379;28;20173;-68
2023/01/29 00:37:49;;;;;;;55.53;30.60;;;0.50;80.10;;;;;;5074092;28;20204;-67
2023/01/29 00:40:15;;;;;;;58.77;32.03;;;0.40;76.80;;;;;;5074109;28;20183;-68
2023/01/29 00:45:28;;;;;;;57.77;31.77;;;0.30;83.60;;;;;;5074042;28;20185;-68
2023/01/29 00:47:53;;;;;;;55.83;31.27;;;0.30;85.40;;;;;;5074009;28;20215;-67
2023/01/29 00:50:19;;;;;;;55.93;30.97;;;0.30;85.90;;;;;;5073897;28;20530;-66
2023/01/29 00:52:45;;;;;;;57.77;31.83;;;0.30;86.70;;;;;;5072472;28;20227;-67
2023/01/29 00:55:11;;;;;;;57.93;31.37;;;0.20;89.50;;;;;;5073814;28;20259;-68
2023/01/29 00:57:37;;;;;;;54.83;30.33;;;0.20;91.20;;;;;;5073617;28;20169;-67
2023/01/29 01:00:06;;;;;;;56.90;31.43;;;0.20;92.20;;;;;;5073395;28;20172;-67
2023/01/29 01:05:16;;;;;;;58.53;32.73;;;0.20;93.10;;;;;;5073615;28;20178;-67
2023/01/29 01:07:47;;;;;;;62.73;34.37;;;0.20;93.80;;;;;;5073539;28;20214;-68
2023/01/29 01:10:23;;;;;;;61.90;33.43;;;0.40;93.80;;;;;;5073468;28;20226;-67
2023/01/29 01:12:52;;;;;;;56.13;32.47;;;0.50;92.60;;;;;;5073630;28;20217;-67
2023/01/29 01:15:19;;;;;;;56.20;31.70;;;0.50;91.90;;;;;;5073149;28;20636;-67
2023/01/29 01:17:47;;;;;;;56.90;31.73;;;0.50;90.90;;;;;;5073564;28;20625;-67
2023/01/29 01:20:14;;;;;;;54.33;31.13;;;0.60;86.90;;;;;;5072344;28;20176;-70
2023/01/29 01:22:39;;;;;;;58.80;32.10;;;0.50;83.90;;;;;;5073538;28;20169;-68
2023/01/29 01:25:05;;;;;;;58.07;32.17;;;0.50;86.60;;;;;;5073137;28;20524;-67
2023/01/29 01:27:31;;;;;;;52.87;30.63;;;0.50;87.30;;;;;;5073377;28;20288;-66
2023/01/29 01:29:57;;;;;;;64.00;31.67;;;0.60;86.20;;;;;;5071919;28;20245;-68
2023/01/29 01:32:22;;;;;;;59.83;29.97;;;0.50;82.60;;;;;;5073537;28;20168;-68
2023/01/29 01:34:48;;;;;;;55.20;29.77;;;0.50;83.50;;;;;;5073267;28;20185;-67
2023/01/29 01:37:13;;;;;;;57.27;30.93;;;0.50;84.90;;;;;;5073276;28;20268;-67
2023/01/29 01:39:39;;;;;;;59.73;31.50;;;0.50;84.40;;;;;;5071946;28;20185;-68
2023/01/29 01:42:10;;;;;;;54.83;30.07;;;0.60;84.10;;;;;;5073410;28;20177;-66
2023/01/29 01:44:58;;;;;;;56.50;30.00;;;0.60;82.90;;;;;;5072922;28;20180;-68
2023/01/29 01:47:43;;;;;;;54.80;29.07;;;0.60;82.10;;;;;;5073260;28;20253;-68
2023/01/29 01:50:34;;;;;;;58.97;30.77;;;0.60;82.50;;;;;;5073217;28;20172;-67
2023/01/29 01:53:10;;;;;;;54.00;28.53;;;0.60;83.50;;;;;;5072935;28;20219;-68
2023/01/29 01:55:42;;;;;;;58.17;29.57;;;0.60;84.40;;;;;;5073142;28;20183;-68
2023/01/29 01:58:17;;;;;;;55.50;30.47;;;0.60;85.70;;;;;;5054712;28;20180;-66
2023/01/29 02:00:42;;;;;;;50.43;28.73;;;0.60;84.60;;;;;;5073272;28;20178;-66
2023/01/29 02:11:54;;;;;;;54.13;30.13;;;0.50;80.40;;;;;;5072726;28;20574;-67
2023/01/29 02:14:21;;;;;;;53.27;28.60;;;0.40;80.70;;;;;;5072960;28;20172;-67
2023/01/29 02:16:46;;;;;;;55.37;28.57;;;0.40;82.50;;;;;;5072864;28;20199;-67
2023/01/29 02:19:26;;;;;;;54.83;31.03;;;0.40;83.00;;;;;;5072858;28;20632;-67
2023/01/29 02:22:28;;;;;;;56.87;31.03;;;0.50;84.00;;;;;;5072867;28;20180;-67
2023/01/29 02:24:56;;;;;;;61.60;32.13;;;0.40;82.30;;;;;;5054960;28;20191;-66
2023/01/29 02:27:55;;;;;;;57.10;30.53;;;0.30;81.00;;;;;;5072458;28;20212;-67
2023/01/29 02:30:46;;;;;;;58.57;31.27;;;0.30;82.60;;;;;;5054900;28;20171;-67
2023/01/29 02:33:30;;;;;;;57.27;31.90;;;0.30;83.80;;;;;;5055080;28;20184;-68
2023/01/29 02:36:02;;;;;;;56.17;31.73;;;0.30;84.00;;;;;;5073777;28;20181;-67
2023/01/29 02:38:45;;;;;;;58.17;31.03;;;0.20;82.70;;;;;;5076383;28;20192;-66
2023/01/29 02:41:33;;;;;;;57.30;31.70;;;0.10;84.30;;;;;;5076190;28;20179;-67
2023/01/29 02:44:39;;;;;;;58.30;31.97;;;0.10;87.00;;;;;;5058456;28;20192;-67
2023/01/29 02:47:21;;;;;;;55.30;29.60;;;0.00;90.30;;;;;;5076139;28;20210;-67
2023/01/29 02:49:56;;;;;;;58.13;31.27;;;0.00;91.10;;;;;;5076203;28;20250;-67
2023/01/29 02:52:49;;;;;;;57.23;31.20;;;0.00;91.60;;;;;;5076218;28;20230;-67
2023/01/29 02:55:26;;;;;;;57.80;30.33;;;0.00;93.20;;;;;;5075750;28;20199;-67
2023/01/29 02:57:59;;;;;;;56.97;30.33;;;0.10;95.50;;;;;;5076196;28;20254;-67
2023/01/29 03:00:29;;;;;;;55.30;30.43;;;0.20;97.90;;;;;;5076128;28;20160;-67
2023/01/29 03:03:11;;;;;;;57.20;31.23;;;0.10;99.20;;;;;;5058227;28;20281;-68
2023/01/29 03:05:57;;;;;;;52.77;29.93;;;0.20;99.90;;;;;;5076125;28;20260;-67
2023/01/29 03:08:48;;;;;;;52.73;29.10;;;0.20;99.60;;;;;;5075854;28;20200;-67
2023/01/29 03:11:16;;;;;;;55.70;30.03;;;0.20;98.90;;;;;;5075784;28;20165;-67
2023/01/29 03:13:55;;;;;;;57.30;31.33;;;0.20;97.70;;;;;;5075833;28;20212;-67
2023/01/29 03:16:30;;;;;;;59.83;32.70;;;0.20;96.30;;;;;;5075855;28;20745;-67
2023/01/29 03:19:15;;;;;;;59.00;32.77;;;0.20;95.50;;;;;;5075713;28;20168;-67
2023/01/29 03:21:52;;;;;;;57.57;31.83;;;0.20;94.80;;;;;;5075898;28;20208;-67
2023/01/29 03:33:12;;;;;;;57.07;31.23;;;0.10;95.20;;;;;;5075486;28;20272;-67
2023/01/29 03:35:47;;;;;;;61.97;32.40;;;0.20;96.40;;;;;;5075475;28;20167;-67
2023/01/29 03:38:13;;;;;;;63.83;33.53;;;0.10;96.30;;;;;;5075149;28;20234;-67
2023/01/29 03:40:49;;;;;;;60.23;32.30;;;0.10;97.00;;;;;;5075458;28;20172;-67
2023/01/29 03:43:44;;;;;;;59.73;30.63;;;0.10;97.10;;;;;;5075383;28;20167;-67
2023/01/29 03:46:21;;;;;;;60.30;31.00;;;0.00;97.00;;;;;;5075147;28;20639;-66
2023/01/29 03:49:13;;;;;;;59.03;30.70;;;0.00;97.80;;;;;;5057187;28;20214;-66
2023/01/29 03:52:05;;;;;;;57.60;30.13;;;0.00;98.30;;;;;;5023976;28;20206;-66
2023/01/29 03:54:33;;;;;;;60.00;32.43;;;0.00;99.60;;;;;;5074864;28;20269;-66
2023/01/29 03:57:29;;;;;;;61.13;31.37;;;0.00;99.80;;;;;;5075005;28;20168;-65
2023/01/29 04:00:06;;;;;;;58.53;30.80;;;0.00;99.90;;;;;;5074930;28;20176;-66
2023/01/29 04:02:42;;;;;;;58.70;30.80;;;0.00;99.40;;;;;;5074969;28;20190;-67
2023/01/29 04:05:19;;;;;;;53.47;30.00;;;0.00;99.30;;;;;;5074715;28;20160;-65
2023/01/29 04:07:46;;;;;;;56.73;29.67;;;0.00;99.50;;;;;;5074612;28;20208;-67
2023/01/29 04:10:16;;;;;;;56.27;29.67;;;0.00;99.20;;;;;;5074718;28;20181;-65
2023/01/29 04:12:47;;;;;;;60.60;30.97;;;0.00;98.80;;;;;;5074845;28;20225;-65
2023/01/29 04:15:14;;;;;;;57.23;30.60;;;0.00;98.70;;;;;;5074537;28;20168;-67
2023/01/29 04:17:46;;;;;;;59.80;30.83;;;0.10;98.40;;;;;;5074601;28;20686;-67
2023/01/29 04:20:12;;;;;;;60.37;30.73;;;0.00;98.80;;;;;;5074966;28;20186;-67
2023/01/29 04:22:40;;;;;;;56.23;29.87;;;0.10;98.80;;;;;;5074407;28;20225;-66
2023/01/29 04:25:14;;;;;;;58.60;30.13;;;0.00;98.40;;;;;;5074477;28;20651;-67
2023/01/29 04:28:15;;;;;;;58.13;29.67;;;0.10;98.10;;;;;;5074389;28;20214;-68
2023/01/29 04:31:01;;;;;;;56.33;28.73;;;0.10;97.60;;;;;;5074491;28;20165;-67
2023/01/29 04:33:59;;;;;;;54.00;29.70;;;0.10;97.10;;;;;;5074690;28;20203;-67
2023/01/29 04:36:55;;;;;;;57.07;29.67;;;0.10;96.60;;;;;;5018481;28;20172;-67
2023/01/29 04:39:48;;;;;;;59.87;30.23;;;0.20;96.90;;;;;;5074152;28;20195;-67
2023/01/29 04:42:32;;;;;;;55.20;29.30;;;0.20;97.10;;;;;;5074441;28;20165;-67
2023/01/29 04:45:27;;;;;;;57.47;29.17;;;0.10;97.30;;;;;;5074162;28;20167;-67
2023/01/29 04:48:03;;;;;;;58.67;29.50;;;0.20;97.10;;;;;;5074150;28;20597;-67
2023/01/29 04:50:40;;;;;;;54.30;28.67;;;0.10;97.50;;;;;;5074029;28;20202;-67
2023/01/29 04:53:22;;;;;;;63.43;30.77;;;0.20;97.50;;;;;;5073136;28;20230;-67
2023/01/29 04:56:02;;;;;;;57.13;29.30;;;0.20;97.40;;;;;;5074106;28;20172;-67
2023/01/29 04:58:53;;;;;;;58.20;28.90;;;0.30;97.10;;;;;;5073547;28;20179;-67
2023/01/29 05:01:21;;;;;;;56.50;28.63;;;0.40;96.90;;;;;;5073845;28;20168;-67
2023/01/29 05:03:50;;;;;;;60.70;30.50;;;0.50;96.80;;;;;;5074118;28;20222;-67
2023/01/29 05:06:17;;;;;;;58.37;30.07;;;0.50;95.40;;;;;;5073570;28;20206;-67
2023/01/29 05:08:44;;;;;;;53.50;27.67;;;0.50;93.90;;;;;;5073720;28;20212;-67
2023/01/29 05:11:10;;;;;;;56.47;28.77;;;0.60;91.30;;;;;;5073607;28;20523;-67
2023/01/29 05:13:39;;;;;;;53.37;27.27;;;0.50;88.20;;;;;;5073300;28;20180;-67
2023/01/29 05:16:18;;;;;;;55.40;28.40;;;0.50;86.30;;;;;;5073598;28;20286;-67
2023/01/29 05:18:44;;;;;;;56.60;28.37;;;0.50;88.60;;;;;;5073540;28;20213;-67
2023/01/29 05:21:09;;;;;;;57.83;29.73;;;0.60;87.70;;;;;;5073209;28;20173;-67
2023/01/29 05:23:35;;;;;;;51.20;27.93;;;0.70;86.50;;;;;;5073293;28;20241;-67
2023/01/29 05:26:01;;;;;;;55.03;27.90;;;0.70;81.80;;;;;;5073562;28;20203;-67
2023/01/29 05:28:27;;;;;;;54.30;29.00;;;0.70;79.00;;;;;;5073262;28;20742;-67
2023/01/29 05:30:55;;;;;;;54.80;29.37;;;0.60;76.50;;;;;;5073452;28;20171;-67
2023/01/29 05:33:30;;;;;;;53.33;28.77;;;0.60;77.60;;;;;;5073467;28;20272;-67
2023/01/29 05:35:57;;;;;;;55.13;29.07;;;0.60;79.40;;;;;;5073296;28;20286;-67
2023/01/29 05:38:23;;;;;;;55.67;29.47;;;0.70;80.00;;;;;;5073147;28;20192;-66
2023/01/29 05:40:49;;;;;;;53.83;28.90;;;0.80;81.80;;;;;;5073303;28;20172;-67
2023/01/29 05:43:20;;;;;;;57.13;29.33;;;0.80;80.50;;;;;;5073332;28;20172;-67
2023/01/29 05:45:59;;;;;;;59.17;28.93;;;0.80;78.60;;;;;;5073378;28;20164;-65
2023/01/29 05:48:27;;;;;;;56.50;28.27;;;0.80;77.30;;;;;;5073089;28;20679;-66
2023/01/29 05:50:53;;;;;;;56.40;28.37;;;0.80;73.60;;;;;;5072906;28;20163;-66
2023/01/29 05:53:19;;;;;;;53.43;27.83;;;0.80;73.40;;;;;;5072966;28;20752;-66
2023/01/29 05:55:48;;;;;;;55.53;28.73;;;0.80;76.00;;;;;;5072965;28;20171;-65
2023/01/29 05:58:14;;;;;;;57.33;30.10;;;1.00;75.40;;;;;;5073208;28;20171;-65
2023/01/29 06:00:40;;;;;;;53.63;27.87;;;1.00;73.50;;;;;;5072914;28;20259;-66
2023/01/29 06:03:05;;;;;;;52.90;29.53;;;1.10;67.60;;;;;;5073116;28;20230;-66
2023/01/29 06:05:31;;;;;;;51.20;27.67;;;1.00;64.30;;;;;;5072867;28;20172;-66
2023/01/29 06:07:57;;;;;;;50.27;28.17;;;1.00;64.90;;;;;;5073027;28;20208;-66
2023/01/29 06:10:23;;;;;;;55.07;29.77;;;1.00;67.30;;;;;;5074482;28;20575;-67
2023/01/29 06:12:48;;;;;;;53.90;28.57;;;1.20;67.00;;;;;;5076988;28;20169;-67
2023/01/29 06:15:14;;;;;;;61.03;31.20;;;1.20;62.50;;;;;;5076848;28;20255;-66
2023/01/29 06:17:40;;;;;;;54.80;29.73;;;1.30;57.60;;;;;;5059011;28;20613;-67
2023/01/29 06:20:07;;;;;;;58.43;30.43;;;1.40;56.50;;;;;;5076484;28;20183;-67
2023/01/29 06:22:32;;;;;;;54.33;30.47;;;1.40;50.60;;;;;;5076406;28;20183;-67
2023/01/29 06:24:58;;;;;;;57.87;30.20;;;1.50;47.80;;;;;;5076663;28;20609;-67
2023/01/29 06:27:24;;;;;;;54.80;29.13;;;1.50;46.00;;;;;;5076496;28;20210;-67
2023/01/29 06:29:49;;;;;;;58.17;28.57;;;1.50;44.90;;;;;;5076675;28;20260;-67
2023/01/29 06:32:15;;;;;;;54.80;28.87;;;1.40;43.20;;;;;;5076223;28;20183;-66
2023/01/29 06:34:40;;;;;;;57.70;29.63;;;1.30;46.50;;;;;;5076539;28;20177;-67
2023/01/29 06:37:06;;;;;;;54.53;28.30;;;1.20;54.20;;;;;;5076434;28;20173;-67
2023/01/29 06:39:32;;;;;;;56.27;28.30;;;1.20;56.90;;;;;;5076448;28;20200;-67
2023/01/29 06:41:58;;;;;;;52.77;28.00;;;1.30;58.90;;;;;;5076521;28;20260;-66
2023/01/29 06:44:24;;;;;;;59.43;29.70;;;1.30;56.70;;;;;;5076509;28;20208;-66
2023/01/29 06:46:49;;;;;;;52.37;27.83;;;1.30;56.30;;;;;;5076175;28;20629;-65
2023/01/29 06:49:15;;;;;;;54.43;28.23;;;1.30;55.50;;;;;;5076534;28;20176;-67
2023/01/29 06:51:41;;;;;;;58.57;29.93;;;1.40;57.00;;;;;;5058066;28;20176;-68
2023/01/29 06:54:07;;;;;;;51.77;29.33;;;1.50;58.20;;;;;;5076095;28;20215;-67
2023/01/29 06:56:33;;;;;;;54.53;29.57;;;1.60;56.90;;;;;;5076131;28;20165;-67
2023/01/29 06:58:59;;;;;;;52.47;28.07;;;1.60;52.00;;;;;;5076151;28;20165;-68
2023/01/29 07:01:24;;;;;;;57.23;29.77;;;1.60;47.10;;;;;;5075689;28;20203;-67
2023/01/29 07:03:53;;;;;;;56.00;29.63;;;1.60;45.60;;;;;;5076079;28;20616;-67
2023/01/29 07:06:19;;;;;;;53.67;29.13;;;1.60;49.20;;;;;;5076003;28;20172;-67
2023/01/29 07:08:45;;;;;;;56.93;31.20;;;1.60;48.10;;;;;;5076143;28;20686;-67
2023/01/29 07:11:10;;;;;;;58.93;31.17;;;1.60;47.90;;;;;;5076039;28;20630;-67
2023/01/29 07:13:36;;;;;;;56.20;29.90;;;1.70;48.00;;;;;;5075673;28;20564;-67
2023/01/29 07:16:03;;;;;;;57.70;30.97;;;1.70;45.30;;;;;;5075457;28;20533;-67
2023/01/29 07:18:30;;;;;;;58.83;30.37;;;1.70;45.70;;;;;;5075999;28;20169;-67
2023/01/29 07:20:56;;;;;;;54.20;30.00;;;1.70;46.70;;;;;;5075789;28;20279;-68
2023/01/29 07:23:23;;;;;;;52.00;29.33;;;1.70;44.40;;;;;;5075246;28;20172;-67
2023/01/29 07:25:49;;;;;;;61.17;30.83;;;1.80;46.20;;;;;;5075681;28;20173;-67
2023/01/29 07:28:19;;;;;;;53.10;30.37;;;1.80;45.30;;;;;;5075588;28;20222;-67
2023/01/29 07:30:45;;;;;;;60.13;31.93;;;1.90;47.20;;;;;;5075311;28;20231;-67
2023/01/29 07:33:11;;;;;;;52.83;29.77;;;2.00;44.50;;;;;;5075174;28;20215;-67
2023/01/29 07:35:39;;;;;;;55.47;30.47;;;2.10;38.70;;;;;;5075303;28;20286;-68
2023/01/29 07:38:06;;;;;;;55.07;30.50;;;2.20;37.80;;;;;;5057277;28;20626;-68
2023/01/29 07:40:32;;;;;;;55.23;30.93;;;2.40;35.50;;;;;;5075213;28;20628;-68
2023/01/29 07:43:03;;;;;;;56.77;30.77;;;2.40;31.80;;;;;;5057387;28;20184;-67
2023/01/29 07:45:30;;;;;;;56.17;30.57;;;2.50;29.40;;;;;;5074744;28;20267;-68
2023/01/29 07:47:56;;;;;;;54.53;30.83;;;2.50;24.00;;;;;;5075009;28;20211;-67
2023/01/29 07:50:22;;;;;;;53.37;29.73;;;2.50;24.90;;;;;;5075054;28;20172;-67
2023/01/29 07:52:48;;;;;;;52.37;29.73;;;2.60;23.90;;;;;;5074872;28;20314;-68
2023/01/29 07:55:14;;;;;;;55.27;30.60;;;2.70;22.80;;;;;;5075040;28;20271;-67
2023/01/29 07:57:39;;;;;;;54.33;30.27;;;2.70;19.50;;;;;;5075034;28;20203;-68
2023/01/29 08:00:05;;;;;;;55.87;31.20;;;2.70;16.90;;;;;;5074612;28;20173;-68
2023/01/29 08:02:31;;;;;;;56.73;29.50;;;2.80;15.90;;;;;;5074505;28;20181;-68
2023/01/29 08:04:56;;;;;;;54.60;29.20;;;2.90;14.90;;;;;;5074820;28;20620;-68
2023/01/29 08:07:22;;;;;;;51.77;29.30;;;2.90;14.30;;;;;;5074893;28;20208;-67
2023/01/29 08:09:48;;;;;;;47.73;27.80;;;2.80;14.40;;;;;;5074636;28;20169;-68
2023/01/29 08:12:13;;;;;;;50.23;27.30;;;2.90;14.20;;;;;;5074717;28;20173;-68
2023/01/29 08:14:39;;;;;;;50.43;28.77;;;2.90;9.90;;;;;;5056213;28;20675;-67
2023/01/29 08:17:05;;;;;;;53.97;29.23;;;2.80;8.30;;;;;;5056690;28;20173;-68
2023/01/29 08:19:30;;;;;;;51.47;28.67;;;2.90;10.20;;;;;;5074477;28;20169;-67
2023/01/29 08:21:56;;;;;;;50.30;28.27;;;2.80;10.70;;;;;;5056644;28;20175;-68
2023/01/29 08:24:22;;;;;;;50.37;28.07;;;2.90;9.50;;;;;;5074602;28;20175;-68
2023/01/29 08:26:47;;;;;;;50.10;29.23;;;3.00;9.80;;;;;;5074497;28;20639;-68
2023/01/29 08:29:13;;;;;;;51.13;28.73;;;3.00;6.00;;;;;;5055970;28;20180;-69
2023/01/29 08:31:38;;;;;;;51.47;29.57;;;3.00;3.10;;;;;;5074259;28;20176;-67
2023/01/29 08:34:04;;;;;;;49.30;28.87;;;3.10;3.80;;;;;;5073094;28;20574;-68
2023/01/29 08:36:30;;;;;;;53.73;29.43;;;3.00;4.10;;;;;;5074254;28;20176;-67
2023/01/29 08:38:55;;;;;;;49.17;27.80;;;3.00;5.90;;;;;;5073993;28;20192;-68
2023/01/29 08:41:21;;;;;;;48.97;27.93;;;3.20;8.90;;;;;;5074484;28;20165;-68
2023/01/29 08:43:46;;;;;;;51.97;28.33;;;3.20;3.70;;;;;;5073670;28;20172;-68
2023/01/29 08:46:12;;;;;;;48.93;29.37;;;3.20;1.00;;;;;;5073995;28;20191;-68
2023/01/29 08:48:37;;;;;;;52.50;29.20;;;3.40;2.70;;;;;;5073935;28;20566;-68
2023/01/29 08:51:04;;;;;;;46.83;27.27;;;3.40;1.00;;;;;;5073833;28;20250;-66
2023/01/29 08:53:30;;;;;;;49.27;28.37;;;3.50;1.00;;;;;;5073596;28;20234;-68
2023/01/29 08:55:56;;;;;;;50.27;29.30;;;3.60;1.00;;;;;;5074018;28;20176;-67
2023/01/29 08:58:21;;;;;;;49.73;29.30;;;3.50;1.00;;;;;;5073399;28;20173;-67
2023/01/29 09:00:47;;;;;;;46.83;27.87;;;3.40;1.00;;;;;;5073418;28;20636;-66
2023/01/29 09:03:13;;;;;;;48.80;28.73;;;3.50;1.00;;;;;;5073467;28;20180;-68
2023/01/29 09:05:39;;;;;;;46.73;26.93;;;3.50;1.00;;;;;;5073583;28;20693;-67
2023/01/29 09:08:06;;;;;;;50.10;27.57;;;3.50;1.00;;;;;;5073764;28;20258;-68
2023/01/29 09:10:32;;;;;;;48.40;28.50;;;3.50;1.00;;;;;;5073763;28;20226;-68
2023/01/29 09:12:58;;;;;;;47.57;27.43;;;3.50;1.00;;;;;;5073166;28;20176;-68
2023/01/29 09:15:24;;;;;;;43.50;26.43;;;3.60;1.00;;;;;;5055369;28;20551;-68
2023/01/29 09:17:49;;;;;;;48.17;27.33;;;3.60;1.00;;;;;;5073479;28;20169;-68
2023/01/29 09:20:15;;;;;;;44.93;27.37;;;3.70;1.00;;;;;;5073402;28;20628;-68
2023/01/29 09:22:41;;;;;;;48.00;27.17;;;3.70;1.00;;;;;;5073400;28;20203;-68
2023/01/29 09:25:08;;;;;;;43.07;26.40;;;3.70;1.00;;;;;;5073314;28;20201;-68
2023/01/29 09:27:33;;;;;;;52.93;29.20;;;3.50;1.00;;;;;;5073010;28;20203;-68
2023/01/29 09:29:59;;;;;;;46.57;27.50;;;3.60;1.00;;;;;;5055277;28;20168;-68
2023/01/29 09:32:25;;;;;;;47.37;27.47;;;3.60;1.00;;;;;;5073217;28;20176;-68
2023/01/29 09:34:50;;;;;;;48.37;28.60;;;3.50;1.00;;;;;;5073416;28;20192;-67
2023/01/29 09:37:16;;;;;;;49.57;28.83;;;3.50;1.00;;;;;;5073247;28;20177;-69
2023/01/29 09:39:42;;;;;;;47.70;27.23;;;3.50;1.00;;;;;;5072981;28;20200;-67
2023/01/29 09:42:25;;;;;;;91.57;49.73;;;3.50;1.00;;;;;;5055005;28;20183;-68
2023/01/29 09:45:05;;;;;;;66.93;37.47;;;3.60;1.00;;;;;;5072867;28;20180;-69
2023/01/29 09:47:34;;;;;;;47.17;28.97;;;3.40;1.00;;;;;;5073112;28;20215;-68
2023/01/29 09:50:14;;;;;;;46.63;26.47;;;3.40;1.00;;;;;;5072896;28;20164;-67
2023/01/29 09:52:56;;;;;;;46.37;26.20;;;3.40;1.00;;;;;;5072863;28;20294;-69
2023/01/29 09:55:24;;;;;;;57.10;34.23;;;3.50;1.00;;;;;;5072894;28;20161;-68
2023/01/29 09:57:58;;;;;;;46.03;28.73;;;3.40;1.00;;;;;;5073086;28;20192;-68
2023/01/29 10:00:39;;;;;;;50.13;28.93;;;3.40;1.00;;;;;;5072867;28;20194;-69
2023/01/29 10:03:34;;;;;;;48.63;27.13;;;3.40;1.00;;;;;;5073113;28;20178;-69
2023/01/29 10:06:18;;;;;;;46.80;25.60;;;3.50;1.00;;;;;;5073099;28;20183;-68
2023/01/29 10:09:05;;;;;;;43.40;24.87;;;3.60;1.00;;;;;;5072651;28;20204;-69
2023/01/29 10:11:58;;;;;;;43.00;24.73;;;3.60;1.00;;;;;;5072595;28;20212;-68
2023/01/29 10:15:02;;;;;;;44.17;25.40;;;3.70;1.00;;;;;;5072802;28;20230;-69
2023/01/29 10:17:39;;;;;;;46.17;25.27;;;3.80;1.00;;;;;;5034393;28;20176;-69
2023/01/29 10:20:26;;;;;;;49.30;25.50;;;3.90;1.00;;;;;;5072469;28;20260;-68
2023/01/29 10:23:09;;;;;;;40.13;24.40;;;4.20;1.00;;;;;;5072833;28;20184;-68
2023/01/29 10:25:39;;;;;;;44.40;25.30;;;4.10;1.00;;;;;;5072542;28;20648;-68
2023/01/29 10:28:33;;;;;;;40.90;23.70;;;4.10;1.00;;;;;;5072617;28;20643;-68
2023/01/29 10:31:23;;;;;;;41.30;23.73;;;4.00;1.00;;;;;;5054737;28;20173;-69
2023/01/29 10:34:15;;;;;;;40.87;23.77;;;4.10;1.00;;;;;;5072644;28;20187;-69
2023/01/29 10:36:46;;;;;;;42.00;23.83;;;4.10;1.00;;;;;;5072549;28;20165;-69
2023/01/29 10:39:25;;;;;;;41.83;23.97;;;4.20;1.00;;;;;;5054568;28;20222;-69
2023/01/29 10:42:13;;;;;;;42.67;24.13;;;4.20;1.00;;;;;;5072686;28;20199;-69
2023/01/29 10:45:08;;;;;;;42.97;24.80;;;4.30;1.00;;;;;;5072424;28;20222;-69
2023/01/29 10:48:09;;;;;;;39.97;25.80;;;4.40;1.00;;;;;;5072405;28;20667;-68
2023/01/29 10:50:56;;;;;;;40.87;23.57;;;4.50;1.00;;;;;;5034087;28;20636;-68
2023/01/29 10:53:31;;;;;;;45.13;25.30;;;4.30;1.00;;;;;;5065439;28;20224;-69
2023/01/29 10:56:25;;;;;;;41.53;24.33;;;4.40;1.00;;;;;;5072513;28;20639;-68
2023/01/29 10:58:55;;;;;;;42.80;26.03;;;4.40;1.00;;;;;;5075786;28;20175;-69
2023/01/29 11:01:21;;;;;;;41.70;24.77;;;4.30;1.00;;;;;;5075958;28;20172;-69
2023/01/29 11:03:56;;;;;;;42.03;25.43;;;4.20;1.00;;;;;;5075707;28;20173;-69
2023/01/29 11:06:31;;;;;;;37.87;24.50;;;4.20;1.00;;;;;;5075904;28;20172;-68
2023/01/29 11:09:31;;;;;;;42.90;24.07;;;4.10;1.00;;;;;;5075422;28;20222;-69
2023/01/29 11:12:01;;;;;;;43.43;26.57;;;4.20;1.00;;;;;;5075774;28;20189;-69
2023/01/29 11:14:51;;;;;;;43.60;24.73;;;4.30;1.00;;;;;;5075806;28;20180;-69
2023/01/29 11:17:22;;;;;;;43.07;24.53;;;4.30;1.00;;;;;;5075848;28;20691;-69
2023/01/29 11:19:54;;;;;;;38.60;23.03;;;4.30;1.00;;;;;;5075349;28;20251;-69
2023/01/29 11:22:22;;;;;;;38.03;23.83;;;4.40;1.00;;;;;;5075792;28;20170;-68
2023/01/29 11:25:17;;;;;;;38.83;22.80;;;4.40;1.00;;;;;;5075481;28;20264;-69
2023/01/29 11:27:48;;;;;;;39.30;23.90;;;4.40;1.00;;;;;;5075435;28;20212;-69
2023/01/29 11:30:37;;;;;;;36.53;23.03;;;4.40;1.00;;;;;;5074221;28;20164;-68
2023/01/29 11:33:19;;;;;;;37.20;22.70;;;4.20;1.00;;;;;;5075232;28;20173;-68
2023/01/29 11:35:45;;;;;;;40.60;22.90;;;4.30;1.00;;;;;;5075654;28;20199;-69
2023/01/29 11:38:25;;;;;;;44.03;24.47;;;4.40;1.00;;;;;;5074954;28;20270;-68
2023/01/29 11:40:52;;;;;;;40.93;23.03;;;4.60;1.00;;;;;;5075197;28;20177;-69
2023/01/29 11:43:29;;;;;;;36.53;22.43;;;4.60;1.00;;;;;;5075325;28;20255;-69
2023/01/29 11:45:58;;;;;;;41.87;24.60;;;4.50;1.00;;;;;;5075293;28;20690;-67
2023/01/29 11:48:50;;;;;;;39.10;22.73;;;4.40;1.00;;;;;;5075116;28;20208;-68
2023/01/29 11:51:28;;;;;;;39.20;22.93;;;4.50;1.00;;;;;;5074495;28;20180;-69
2023/01/29 11:53:57;;;;;;;36.40;22.10;;;4.80;1.00;;;;;;5074741;28;20212;-69
2023/01/29 11:56:33;;;;;;;36.47;21.73;;;4.90;1.00;;;;;;5075205;28;20180;-69
2023/01/29 11:59:03;;;;;;;37.50;21.30;;;4.80;1.00;;;;;;5057304;28;20167;-69
2023/01/29 12:01:38;;;;;;;35.77;19.57;;;4.90;1.00;;;;;;5056939;28;20260;-69
2023/01/29 12:04:17;;;;;;;31.03;19.70;;;5.00;1.00;;;;;;5074806;28;20168;-69
2023/01/29 12:06:47;;;;;;;34.67;19.33;;;5.00;1.00;;;;;;5074753;28;20176;-70
2023/01/29 12:09:18;;;;;;;30.43;18.93;;;5.10;1.00;;;;;;5074567;28;20204;-69
2023/01/29 12:11:44;;;;;;;27.37;18.37;;;5.20;1.00;;;;;;5074767;28;20176;-69
2023/01/29 12:14:32;;;;;;;30.07;18.50;;;5.30;1.00;;;;;;5074621;28;20173;-69
2023/01/29 12:17:18;;;;;;;23.73;16.50;;;5.30;1.00;;;;;;5056595;28;20221;-67
2023/01/29 12:19:56;;;;;;;30.83;18.00;;;5.30;1.00;;;;;;5074563;28;20234;-69
2023/01/29 12:22:49;;;;;;;29.17;18.90;;;5.30;1.00;;;;;;5074212;28;20199;-69
2023/01/29 12:25:37;;;;;;;26.13;17.30;;;5.40;1.00;;;;;;5074235;28;20279;-69
2023/01/29 12:28:32;;;;;;;29.47;18.03;;;5.50;1.00;;;;;;5074546;28;20258;-69
2023/01/29 12:31:10;;;;;;;25.53;17.00;;;5.40;1.00;;;;;;5074554;28;20712;-69
2023/01/29 12:33:45;;;;;;;26.37;16.90;;;5.40;1.00;;;;;;5074237;28;20194;-69
2023/01/29 12:36:36;;;;;;;58.63;44.43;;;5.40;1.00;;;;;;5073951;28;20693;-69
2023/01/29 12:39:02;;;;;;;24.13;16.80;;;5.50;1.00;;;;;;5073257;28;20608;-69
2023/01/29 12:41:31;;;;;;;30.20;20.17;;;5.60;1.00;;;;;;5074213;28;20173;-70
2023/01/29 12:44:18;;;;;;;28.60;19.70;;;5.70;1.00;;;;;;5055910;28;20531;-68
2023/01/29 12:46:51;;;;;;;28.73;16.83;;;5.70;1.00;;;;;;5074022;28;20176;-70
2023/01/29 12:49:24;;;;;;;29.10;18.17;;;5.60;1.00;;;;;;5073791;28;20192;-69
2023/01/29 12:52:00;;;;;;;28.93;18.00;;;5.70;1.00;;;;;;5073737;28;20169;-70
2023/01/29 12:54:42;;;;;;;26.67;16.93;;;5.70;1.00;;;;;;5073792;28;20188;-70
2023/01/29 12:57:18;;;;;;;27.17;18.80;;;5.70;1.00;;;;;;5073663;28;20628;-69
2023/01/29 12:59:54;;;;;;;27.40;16.80;;;5.90;1.00;;;;;;5073599;28;20168;-69
2023/01/29 13:02:54;;;;;;;24.37;16.43;;;5.80;99.90;;;;;;5073804;28;20172;-69
2023/01/29 13:05:28;;;;;;;22.93;15.93;;;5.70;99.90;;;;;;5072913;28;20237;-68
2023/01/29 13:08:01;;;;;;;24.57;15.83;;;5.50;99.90;;;;;;5073592;28;20219;-69
2023/01/29 13:10:33;;;;;;;24.33;14.97;;;5.50;99.90;;;;;;5073659;28;20179;-69
2023/01/29 13:13:30;;;;;;;23.10;14.83;;;5.50;99.90;;;;;;5073109;28;20517;-69
2023/01/29 13:15:58;;;;;;;25.63;15.30;;;5.20;99.90;;;;;;5068491;28;20189;-69
2023/01/29 13:18:46;;;;;;;25.43;16.47;;;5.30;99.90;;;;;;5073092;28;20180;-69
2023/01/29 13:21:29;;;;;;;21.80;15.10;;;5.20;99.90;;;;;;5072671;28;20287;-69
2023/01/29 13:24:26;;;;;;;25.40;16.83;;;5.50;99.90;;;;;;5073363;28;20235;-69
2023/01/29 13:26:52;;;;;;;23.53;15.30;;;5.50;99.90;;;;;;4972201;28;20652;-69
2023/01/29 13:29:27;;;;;;;29.93;16.77;;;5.50;99.90;;;;;;4972589;28;20208;-69
2023/01/29 13:31:58;;;;;;;25.63;16.40;;;5.50;99.90;;;;;;4972472;28;20180;-69
2023/01/29 13:34:44;;;;;;;25.63;16.53;;;5.50;99.90;;;;;;4971727;28;20203;-69